Time;durP1;ratioP1;P1;durP2;ratioP2;P2;SDS_P1;SDS_P2;PMS_P1;PMS_P2;Temp;Humidity;BMP_temperature;BMP_pressure;BME280_temperature;BME280_humidity;BME280_pressure;Samples;Min_cycle;Max_cycle;Signal;HPM_P1;HPM_P2
2021/12/03 00:06:40;;;;;;;9.2;14.1;;;;;;;2.8;56.5;97450;;;;
2021/12/03 00:17:39;;;;;;;7.9;12;;;;;;;2.7;57.1;97460;;;;
2021/12/03 00:27:39;;;;;;;7.9;12;;;;;;;2.5;56.3;97490;;;;
2021/12/03 00:37:39;;;;;;;7.9;12;;;;;;;2.5;56.9;97500;;;;
2021/12/03 00:48:39;;;;;;;4.7;10.1;;;;;;;2.3;56.9;97530;;;;
2021/12/03 00:58:39;;;;;;;4.7;10.1;;;;;;;2.2;57.3;97530;;;;
2021/12/03 01:08:39;;;;;;;4.7;10.1;;;;;;;2.1;57.4;97540;;;;
2021/12/03 01:19:39;;;;;;;4.1;7.1;;;;;;;2.1;58.7;97550;;;;
2021/12/03 01:29:39;;;;;;;4.1;7.1;;;;;;;2;59;97550;;;;
2021/12/03 01:40:39;;;;;;;4.1;7.1;;;;;;;1.9;59;97540;;;;
2021/12/03 01:51:39;;;;;;;3.8;8.7;;;;;;;1.9;59.2;97550;;;;
2021/12/03 02:02:39;;;;;;;3.8;8.7;;;;;;;1.8;59.4;97580;;;;
2021/12/03 02:12:39;;;;;;;3.8;8.7;;;;;;;1.8;60;97600;;;;
2021/12/03 02:22:39;;;;;;;4;8;;;;;;;1.8;59.7;97620;;;;
2021/12/03 02:32:39;;;;;;;4;8;;;;;;;1.8;60;97640;;;;
2021/12/03 02:42:39;;;;;;;4;8;;;;;;;1.7;60.4;97640;;;;
2021/12/03 02:52:39;;;;;;;4.7;10.8;;;;;;;1.7;60.5;97660;;;;
2021/12/03 03:03:39;;;;;;;4.7;10.8;;;;;;;1.6;61.4;97650;;;;
2021/12/03 03:13:39;;;;;;;4.7;10.8;;;;;;;1.5;61.5;97680;;;;
2021/12/03 03:23:39;;;;;;;4.9;8.7;;;;;;;1.3;62.1;97680;;;;
2021/12/03 03:34:39;;;;;;;4.9;8.7;;;;;;;1.2;62.7;97700;;;;
2021/12/03 03:44:39;;;;;;;4.9;8.9;;;;;;;1.1;62.5;97720;;;;
2021/12/03 03:54:39;;;;;;;4.9;8.9;;;;;;;1;63;97720;;;;
2021/12/03 04:04:39;;;;;;;4.9;8.9;;;;;;;1.1;63.9;97750;;;;
2021/12/03 04:14:39;;;;;;;4.4;8.2;;;;;;;1;63.8;97770;;;;
2021/12/03 04:25:39;;;;;;;4.4;8.2;;;;;;;1;63.8;97800;;;;
2021/12/03 04:36:39;;;;;;;4.4;8.2;;;;;;;1.1;64.2;97810;;;;
2021/12/03 04:46:39;;;;;;;3.8;6.9;;;;;;;1.1;65.3;97810;;;;
2021/12/03 04:56:39;;;;;;;3.8;6.9;;;;;;;1.1;65.3;97820;;;;
2021/12/03 05:07:53;;;;;;;3.8;6.9;;;;;;;1;65;97830;;;;
2021/12/03 05:17:39;;;;;;;3.7;7;;;;;;;0.9;66;97850;;;;
2021/12/03 05:27:39;;;;;;;3.7;7;;;;;;;0.8;65.9;97860;;;;
2021/12/03 05:38:39;;;;;;;3.7;7;;;;;;;0.9;65.7;97870;;;;
2021/12/03 05:49:39;;;;;;;4.4;7.6;;;;;;;0.9;66.3;97890;;;;
2021/12/03 06:00:39;;;;;;;4.4;7.6;;;;;;;0.9;66.5;97900;;;;
2021/12/03 06:11:39;;;;;;;4.4;7.6;;;;;;;0.8;66.7;97920;;;;
2021/12/03 06:21:39;;;;;;;5.1;11.2;;;;;;;0.9;66.8;97930;;;;
2021/12/03 06:32:39;;;;;;;5.1;11.2;;;;;;;0.8;66.7;97950;;;;
2021/12/03 06:43:39;;;;;;;5.1;11.2;;;;;;;0.7;67.4;97970;;;;
2021/12/03 06:53:42;;;;;;;6.5;11.4;;;;;;;0.3;68;98000;;;;
2021/12/03 07:03:39;;;;;;;6.5;11.4;;;;;;;0.2;68.7;98030;;;;
2021/12/03 07:13:39;;;;;;;6.5;11.4;;;;;;;0.1;69.7;98030;;;;
2021/12/03 07:23:39;;;;;;;4.8;8.1;;;;;;;0;70.3;98040;;;;
2021/12/03 07:33:39;;;;;;;4.8;8.1;;;;;;;0.2;70.4;98060;;;;
2021/12/03 07:44:39;;;;;;;6.7;12.4;;;;;;;0.3;70.3;98070;;;;
2021/12/03 07:54:39;;;;;;;6.7;12.4;;;;;;;0.4;70.5;98090;;;;
2021/12/03 08:05:39;;;;;;;6.7;12.4;;;;;;;0.4;71.1;98100;;;;
2021/12/03 08:15:39;;;;;;;8.5;12.3;;;;;;;0.8;70.4;98120;;;;
2021/12/03 08:25:39;;;;;;;8.5;12.3;;;;;;;1.1;69.1;98140;;;;
2021/12/03 08:35:39;;;;;;;8.5;12.3;;;;;;;1.2;68.2;98150;;;;
2021/12/03 08:45:39;;;;;;;8.8;14;;;;;;;1.2;67.7;98160;;;;
2021/12/03 08:55:40;;;;;;;8.8;14;;;;;;;1.4;67.1;98190;;;;
2021/12/03 09:06:39;;;;;;;8.8;14;;;;;;;1.4;67.2;98190;;;;
2021/12/03 09:17:49;;;;;;;10;13.1;;;;;;;1.5;68.1;98210;;;;
2021/12/03 09:27:39;;;;;;;10;13.1;;;;;;;1.5;68.6;98220;;;;
2021/12/03 09:37:39;;;;;;;10;13.1;;;;;;;1.3;69.2;98220;;;;
2021/12/03 09:48:53;;;;;;;9.4;14.1;;;;;;;1.3;67;98230;;;;
2021/12/03 09:59:58;;;;;;;9.4;14.1;;;;;;;1.6;64.9;98220;;;;
2021/12/03 10:20:45;;;;;;;8;10.3;;;;;;;1.7;62.9;98230;;;;
2021/12/03 10:41:46;;;;;;;8;10.3;;;;;;;2.1;59.5;98210;;;;
2021/12/03 10:51:47;;;;;;;6.1;12;;;;;;;2.3;59.1;98200;;;;
2021/12/03 11:35:12;;;;;;;8;11.1;;;;;;;2.8;56.5;98210;;;;
2021/12/03 12:07:15;;;;;;;7.4;12.6;;;;;;;2.6;53.5;98200;;;;
2021/12/03 12:16:31;;;;;;;6.8;11;;;;;;;2.8;54;98200;;;;
2021/12/03 12:26:27;;;;;;;6.8;11;;;;;;;2.8;54.6;98190;;;;
2021/12/03 12:38:12;;;;;;;6.8;11;;;;;;;2.9;53.1;98210;;;;
2021/12/03 13:10:34;;;;;;;5.1;9.8;;;;;;;2.6;52.9;98220;;;;
2021/12/03 13:20:23;;;;;;;5.3;12.6;;;;;;;2.5;52.9;98230;;;;
2021/12/03 13:32:04;;;;;;;5.3;12.6;;;;;;;2.3;53.4;98230;;;;
2021/12/03 13:43:06;;;;;;;5.3;12.6;;;;;;;2.1;53.6;98250;;;;
2021/12/03 14:13:51;;;;;;;6.6;10.2;;;;;;;1.4;55.9;98280;;;;
2021/12/03 14:43:53;;;;;;;14;21.1;;;;;;;0.7;55.8;98290;;;;
2021/12/03 14:54:57;;;;;;;14;21.1;;;;;;;0.3;55.8;98300;;;;
2021/12/03 15:05:51;;;;;;;14;21.1;;;;;;;0;56.3;98310;;;;
2021/12/03 15:18:34;;;;;;;20.8;40.3;;;;;;;-0.2;56.8;98320;;;;
2021/12/03 15:36:56;;;;;;;20.8;40.3;;;;;;;-0.3;56.5;98340;;;;
2021/12/03 15:56:14;;;;;;;10.3;16.5;;;;;;;-0.5;57;98350;;;;
2021/12/03 16:06:17;;;;;;;10.3;16.5;;;;;;;-0.5;57.6;98340;;;;
2021/12/03 16:16:34;;;;;;;10.2;19.2;;;;;;;-0.6;57.1;98340;;;;
2021/12/03 16:57:58;;;;;;;9.6;18.7;;;;;;;-1.5;59.4;98390;;;;
2021/12/03 17:09:15;;;;;;;9.6;18.7;;;;;;;-1.7;60.2;98400;;;;
2021/12/03 17:20:37;;;;;;;28.4;51.2;;;;;;;-1.9;61.1;98410;;;;
2021/12/03 17:30:48;;;;;;;28.4;51.2;;;;;;;-2;61.1;98410;;;;
2021/12/03 17:51:06;;;;;;;21;40.4;;;;;;;-2;61.7;98420;;;;
2021/12/03 18:01:02;;;;;;;21;40.4;;;;;;;-2.1;61.7;98420;;;;
2021/12/03 18:53:06;;;;;;;27;59.1;;;;;;;-1.6;60.8;98430;;;;
2021/12/03 19:03:00;;;;;;;27;59.1;;;;;;;-1.5;61.3;98420;;;;
2021/12/03 19:13:01;;;;;;;15.9;29.3;;;;;;;-1.4;60.6;98410;;;;
2021/12/03 19:22:58;;;;;;;15.9;29.3;;;;;;;-1.3;59.3;98410;;;;
2021/12/03 19:33:58;;;;;;;15.9;29.3;;;;;;;-1.2;58.4;98410;;;;
2021/12/03 19:44:00;;;;;;;15.9;29.3;;;;;;;-1.2;57.4;98410;;;;
2021/12/03 19:54:58;;;;;;;13.6;25.9;;;;;;;-1.1;55.9;98410;;;;
2021/12/03 20:04:58;;;;;;;13.6;25.9;;;;;;;-1.2;55.9;98400;;;;
2021/12/03 20:14:58;;;;;;;11.3;18.7;;;;;;;-1.2;55.4;98400;;;;
2021/12/03 20:25:19;;;;;;;11.3;18.7;;;;;;;-1.1;54.8;98400;;;;
2021/12/03 20:35:07;;;;;;;11.3;18.7;;;;;;;-1;54.3;98390;;;;
2021/12/03 20:46:43;;;;;;;9.4;15.9;;;;;;;-1;53.9;98390;;;;
2021/12/03 21:08:12;;;;;;;9.4;15.9;;;;;;;-1.1;53.8;98380;;;;
2021/12/03 21:17:05;;;;;;;10.4;20.1;;;;;;;-1.1;54.3;98380;;;;
2021/12/03 21:26:59;;;;;;;10.4;20.1;;;;;;;-1;53.6;98370;;;;
2021/12/03 21:38:20;;;;;;;10.4;20.1;;;;;;;-0.8;52.9;98350;;;;
2021/12/03 21:47:58;;;;;;;8;15;;;;;;;-0.7;53.2;98350;;;;
2021/12/03 21:57:58;;;;;;;8;15;;;;;;;-0.6;53.3;98350;;;;
2021/12/03 22:07:58;;;;;;;8;15;;;;;;;-0.4;53.1;98340;;;;
2021/12/03 22:17:58;;;;;;;8.6;11.4;;;;;;;-0.5;53.9;98330;;;;
2021/12/03 22:28:58;;;;;;;8.6;11.4;;;;;;;-0.5;53.2;98310;;;;
2021/12/03 22:38:58;;;;;;;8.6;11.4;;;;;;;-0.4;53.3;98290;;;;
2021/12/03 22:49:16;;;;;;;8;16.9;;;;;;;-0.3;53.2;98270;;;;
2021/12/03 22:59:58;;;;;;;8;16.9;;;;;;;-0.3;52.8;98260;;;;
2021/12/03 23:09:58;;;;;;;8;16.9;;;;;;;-0.4;52.4;98260;;;;
2021/12/03 23:19:58;;;;;;;6.4;10.1;;;;;;;-0.6;51.8;98230;;;;
2021/12/03 23:30:58;;;;;;;6.4;10.1;;;;;;;-0.9;52.1;98230;;;;
2021/12/03 23:41:58;;;;;;;5.9;11.4;;;;;;;-1.5;53.6;98220;;;;
2021/12/03 23:51:58;;;;;;;5.9;11.4;;;;;;;-1.8;53.7;98220;;;;
